00:06
Airports
History
Links
Donate
Help keep this website running!
PayPal
Bitcoin
This page is community maintained. The information is intended for PC simulator navigation or reference.
Always use approved charts for navigation.
SBFZ
Pinto Martins
Pinto Martins (SBFZ)
Fortaleza, Ceara, Brazil (60420)
(C)
Lat/Lng:3° 46' 34.62" S / 38° 31' 57.2" W
-3.776284 / -38.532556
Elevation:82'ft / 25mMSL
ID / ICAO:SBFZ
Runways:1
Longest:13-31
Asphalt 2,543m / 8,343ft
Controlled:Yes
METAR00:00 GMT 2017-10-17
Altimeter: 29.97
Visibility: 6.2 statute miles
Wind: 10 knots (from 080°)
Temp: 27°c / 81°f
Humidity: 78.8%

METAR: SBFZ 170000Z 08010KT 9999 BKN020 27/23 Q1015

(Powered by phpweather)
Airport Radio Frequencies
ATIS: 127.7
Ground: 121.95
Tower: 129, 118.5
Approach: 133, 134.55, 119.2
Runway 13 / 31
Dimensions:2542.8 x 45.1m 8343' x 148'ft
Surface:Asphalt
Edge Lights:High intensity
Runway 13 [A]Runway 31 [B]
Heading:104°TH 284°TH
Lat:
Lng:
3° 46' 24.03"S
38° 32' 37.14"W
3° 46' 45.21"S
38° 31' 17.26"W
TDZ:Yes, lighted
User Notes and Comments
3° 46' 34.62" S / 38° 31' 57.2" W
Distance To
Airport ID:
Nearby Airports
4 Feijo 6.3 NM
SNFF WSW 248°
(U) Fabrica Fortaleza 10.7 NM
SJDS SSE 168°
4 Sitio Vodo 29.5 NM
SNYX SE 138°
4 Darinha 30.5 NM
SWWZ SE 140°
(C) Aracati 74.4 NM
SNAT SE 137°
4 Vicente Jose 78.4 NM
SNYZ SSE 160°
(C) Russas 88.6 NM
SNRS SSE 155°
VFR Chart
Flight Planning at SkyVector.com